createdAt,value
2018-07-15T00:02:33.879Z,100217.03
2018-07-15T00:05:08.084Z,100217.57
2018-07-15T00:07:41.854Z,100219.55
2018-07-15T00:10:15.179Z,100219.23
2018-07-15T00:12:47.701Z,100218.34
2018-07-15T00:15:21.514Z,100225.41
2018-07-15T00:17:55.563Z,100221.25
2018-07-15T00:20:28.106Z,100223.93
2018-07-15T00:23:01.090Z,100220.22
2018-07-15T00:25:34.074Z,100219.09
2018-07-15T00:28:07.632Z,100214.31
2018-07-15T00:30:44.614Z,100216.19
2018-07-15T00:33:18.145Z,100217.23
2018-07-15T00:35:51.232Z,100221.44
2018-07-15T00:38:25.841Z,100224.91
2018-07-15T00:40:58.361Z,100222.45
2018-07-15T00:43:30.876Z,100221.39
2018-07-15T00:46:08.339Z,100219.81
2018-07-15T00:48:40.874Z,100222.06
2018-07-15T00:51:13.355Z,100227.12
2018-07-15T00:53:47.339Z,100223.18
2018-07-15T00:56:20.193Z,100222.52
2018-07-15T00:58:53.564Z,100220.16
2018-07-15T01:01:28.155Z,100223.77
2018-07-15T01:04:00.721Z,100224.65
2018-07-15T01:06:34.190Z,100221.58
2018-07-15T01:09:10.717Z,100225.45
2018-07-15T01:11:43.209Z,100226.86
2018-07-15T01:14:16.838Z,100223.11
2018-07-15T01:16:49.942Z,100224.25
2018-07-15T01:19:22.409Z,100220.52
2018-07-15T01:21:56.283Z,100217.63
2018-07-15T01:24:29.141Z,100213.66
2018-07-15T01:27:01.680Z,100214.59
2018-07-15T01:29:34.165Z,100216.67
2018-07-15T01:32:08.629Z,100211.77
2018-07-15T01:34:40.933Z,100214.47
2018-07-15T01:37:14.383Z,100211.47
2018-07-15T01:39:47.221Z,100216.34
2018-07-15T01:42:20.829Z,100210.39
2018-07-15T01:44:53.500Z,100211.81
2018-07-15T01:47:27.377Z,100210.59
2018-07-15T01:49:59.840Z,100208.45
2018-07-15T01:52:33.036Z,100206.89
2018-07-15T01:55:06.038Z,100209.02
2018-07-15T01:57:38.577Z,100204.88
2018-07-15T02:00:17.990Z,100207.16
2018-07-15T02:02:53.397Z,100202.29
2018-07-15T02:05:25.972Z,100205.95
2018-07-15T02:08:00.805Z,100204.34
2018-07-15T02:10:33.598Z,100211.77
2018-07-15T02:13:06.409Z,100211.05
2018-07-15T02:15:39.109Z,100206.73
2018-07-15T02:18:11.672Z,100201.38
2018-07-15T02:20:44.281Z,100200.35
2018-07-15T02:23:17.313Z,100206.85
2018-07-15T02:25:50.081Z,100209.99
2018-07-15T02:28:24.681Z,100210.05
2018-07-15T02:31:02.582Z,100206.50
2018-07-15T02:33:36.984Z,100205.83
2018-07-15T02:36:09.585Z,100198.98
2018-07-15T02:38:43.158Z,100201.20
2018-07-15T02:41:16.649Z,100204.03
2018-07-15T02:43:50.136Z,100205.05
2018-07-15T02:46:24.696Z,100208.77
2018-07-15T02:48:58.161Z,100202.56
2018-07-15T02:51:30.976Z,100206.48
2018-07-15T02:54:04.812Z,100204.44
2018-07-15T02:56:37.367Z,100201.08
2018-07-15T02:59:11.370Z,100203.16
2018-07-15T03:01:44.151Z,100204.28
2018-07-15T03:04:16.750Z,100201.66
2018-07-15T03:06:51.490Z,100203.01
2018-07-15T03:09:25.372Z,100198.78
2018-07-15T03:11:57.886Z,100197.46
2018-07-15T03:14:30.261Z,100195.20
2018-07-15T03:17:03.117Z,100192.23
2018-07-15T03:19:35.930Z,100194.74
2018-07-15T03:22:08.970Z,100191.80
2018-07-15T03:24:41.785Z,100195.59
2018-07-15T03:27:14.249Z,100198.21
2018-07-15T03:29:46.769Z,100192.39
2018-07-15T03:32:20.584Z,100191.29
2018-07-15T03:34:53.339Z,100196.13
2018-07-15T03:37:25.733Z,100191.47
2018-07-15T03:39:59.570Z,100190.60
2018-07-15T03:42:32.117Z,100189.20
2018-07-15T03:45:07.582Z,100189.95
2018-07-15T03:47:40.654Z,100192.38
2018-07-15T03:50:18.042Z,100191.34
2018-07-15T03:52:50.849Z,100186.63
2018-07-15T03:57:57.514Z,100183.48
2018-07-15T04:00:31.473Z,100184.09
2018-07-15T04:03:04.174Z,100185.81
2018-07-15T04:05:37.641Z,100179.37
2018-07-15T04:08:10.225Z,100178.22
2018-07-15T04:10:43.857Z,100182.50
2018-07-15T04:13:16.377Z,100181.66
2018-07-15T04:15:49.214Z,100179.95
2018-07-15T04:18:22.612Z,100176.00
2018-07-15T04:20:55.392Z,100171.06
2018-07-15T04:23:29.386Z,100171.16
2018-07-15T04:26:02.677Z,100169.42
2018-07-15T04:28:39.496Z,100172.00
2018-07-15T04:31:13.064Z,100170.52
2018-07-15T04:33:45.565Z,100167.35
2018-07-15T04:36:17.982Z,100171.62
2018-07-15T04:38:51.573Z,100167.22
2018-07-15T04:41:25.708Z,100166.14
2018-07-15T04:43:58.218Z,100168.81
2018-07-15T04:46:31.090Z,100160.91
2018-07-15T04:49:03.630Z,100160.94
2018-07-15T04:51:36.796Z,100158.41
2018-07-15T04:54:09.749Z,100156.83
2018-07-15T04:56:42.559Z,100154.33
2018-07-15T04:59:16.964Z,100156.89
2018-07-15T05:01:51.643Z,100158.84
2018-07-15T05:04:29.417Z,100159.53
2018-07-15T05:07:02.273Z,100164.34
2018-07-15T05:09:34.833Z,100160.08
2018-07-15T05:12:09.505Z,100159.20
2018-07-15T05:14:42.419Z,100161.42
2018-07-15T05:17:14.990Z,100161.90
2018-07-15T05:19:47.574Z,100161.34
2018-07-15T05:22:21.506Z,100168.52
2018-07-15T05:24:54.845Z,100165.03
2018-07-15T05:27:27.584Z,100163.89
2018-07-15T05:30:04.143Z,100163.72
2018-07-15T05:32:36.832Z,100166.50
2018-07-15T05:35:09.593Z,100168.84
2018-07-15T05:37:45.241Z,100165.52
2018-07-15T05:40:17.863Z,100170.78
2018-07-15T05:42:51.494Z,100167.45
2018-07-15T05:45:25.029Z,100174.43
2018-07-15T05:47:58.102Z,100172.51
2018-07-15T05:50:31.775Z,100173.70
2018-07-15T05:53:05.697Z,100183.00
2018-07-15T05:55:38.080Z,100179.60
2018-07-15T05:58:11.383Z,100183.00
2018-07-15T06:00:44.406Z,100182.94
2018-07-15T06:03:19.195Z,100182.83
2018-07-15T06:05:52.995Z,100185.09
2018-07-15T06:08:27.901Z,100179.30
2018-07-15T06:11:03.384Z,100187.11
2018-07-15T06:13:38.056Z,100188.37
2018-07-15T06:16:12.128Z,100176.26
2018-07-15T06:18:44.745Z,100178.45
2018-07-15T06:21:17.353Z,100170.85
2018-07-15T06:23:50.390Z,100177.05
2018-07-15T06:26:22.853Z,100172.52
2018-07-15T06:28:56.112Z,100171.47
2018-07-15T06:31:29.855Z,100175.13
2018-07-15T06:34:03.720Z,100175.78
2018-07-15T06:36:39.094Z,100171.22
2018-07-15T06:39:14.136Z,100174.09
2018-07-15T06:41:51.320Z,100168.75
2018-07-15T06:44:25.171Z,100170.02
2018-07-15T06:46:58.270Z,100171.48
2018-07-15T06:49:32.884Z,100166.64
2018-07-15T06:52:06.737Z,100161.23
2018-07-15T06:54:40.274Z,100159.91
2018-07-15T06:57:13.826Z,100164.61
2018-07-15T06:59:47.877Z,100165.25
2018-07-15T07:02:21.605Z,100161.98
2018-07-15T07:04:55.357Z,100164.16
2018-07-15T07:07:28.060Z,100166.94
2018-07-15T07:10:01.931Z,100164.80
2018-07-15T07:12:34.435Z,100163.98
2018-07-15T07:15:07.794Z,100164.62
2018-07-15T07:17:45.582Z,100162.55
2018-07-15T07:20:18.801Z,100160.58
2018-07-15T07:22:51.294Z,100163.77
2018-07-15T07:25:25.152Z,100157.86
2018-07-15T07:27:59.684Z,100159.48
2018-07-15T07:30:34.109Z,100160.41
2018-07-15T07:33:10.018Z,100161.59
2018-07-15T07:35:42.953Z,100164.61
2018-07-15T07:38:15.616Z,100167.95
2018-07-15T07:40:50.212Z,100166.37
2018-07-15T07:43:23.145Z,100170.72
2018-07-15T07:45:56.550Z,100165.70
2018-07-15T07:48:30.049Z,100162.45
2018-07-15T07:51:03.595Z,100162.20
2018-07-15T07:53:36.939Z,100164.00
2018-07-15T07:56:10.769Z,100164.19
2018-07-15T07:58:45.940Z,100153.80
2018-07-15T08:01:20.621Z,100155.05
2018-07-15T08:03:55.669Z,100146.86
2018-07-15T08:06:30.607Z,100148.23
2018-07-15T08:09:15.776Z,100145.45
2018-07-15T08:11:50.588Z,100147.18
2018-07-15T08:14:23.472Z,100147.26
2018-07-15T08:16:56.965Z,100143.81
2018-07-15T08:19:29.597Z,100142.51
2018-07-15T08:22:03.164Z,100140.27
2018-07-15T08:24:39.045Z,100140.59
2018-07-15T08:27:12.248Z,100135.31
2018-07-15T08:30:08.371Z,100136.94
2018-07-15T08:32:41.617Z,100138.31
2018-07-15T08:35:18.679Z,100136.80
2018-07-15T08:37:56.733Z,100133.03
2018-07-15T08:40:30.420Z,100135.93
2018-07-15T08:43:03.864Z,100135.57
2018-07-15T08:45:36.600Z,100138.48
2018-07-15T08:48:16.760Z,100129.55
2018-07-15T08:50:50.249Z,100126.81
2018-07-15T08:53:24.004Z,100124.62
2018-07-15T08:55:58.090Z,100132.19
2018-07-15T08:58:32.326Z,100128.91
2018-07-15T09:01:06.587Z,100131.16
2018-07-15T09:03:47.308Z,100132.67
2018-07-15T09:06:21.145Z,100131.86
2018-07-15T09:08:59.044Z,100128.86
2018-07-15T09:11:32.055Z,100123.30
2018-07-15T09:14:05.294Z,100127.48
2018-07-15T09:16:39.582Z,100134.28
2018-07-15T09:19:13.278Z,100130.89
2018-07-15T09:21:46.558Z,100126.70
2018-07-15T09:24:22.407Z,100127.66
2018-07-15T09:26:59.119Z,100126.39
2018-07-15T09:29:36.973Z,100126.91
2018-07-15T09:32:11.906Z,100129.10
2018-07-15T09:34:46.367Z,100124.58
2018-07-15T09:37:22.924Z,100131.23
2018-07-15T09:40:03.009Z,100136.72
2018-07-15T09:42:37.746Z,100132.39
2018-07-15T09:45:14.289Z,100134.06
2018-07-15T09:47:47.747Z,100134.06
2018-07-15T09:50:23.785Z,100130.31
2018-07-15T09:52:59.931Z,100131.86
2018-07-15T09:55:34.055Z,100130.36
2018-07-15T09:58:11.911Z,100127.56
2018-07-15T10:00:53.540Z,100124.20
2018-07-15T10:03:28.044Z,100123.31
2018-07-15T10:06:03.768Z,100120.09
2018-07-15T10:08:37.250Z,100125.55
2018-07-15T10:11:10.617Z,100116.56
2018-07-15T10:13:50.098Z,100118.47
2018-07-15T10:16:25.380Z,100120.52
2018-07-15T10:19:00.350Z,100107.42
2018-07-15T10:21:37.773Z,100108.66
2018-07-15T10:24:14.008Z,100112.67
2018-07-15T10:26:48.689Z,100111.23
2018-07-15T10:29:23.317Z,100109.45
2018-07-15T10:31:55.848Z,100109.65
2018-07-15T10:34:29.488Z,100112.13
2018-07-15T10:37:02.340Z,100103.12
2018-07-15T10:39:36.796Z,100106.01
2018-07-15T10:42:11.304Z,100104.03
2018-07-15T10:44:48.383Z,100099.84
2018-07-15T10:47:24.523Z,100099.17
2018-07-15T10:49:58.587Z,100097.78
2018-07-15T10:52:33.623Z,100097.22
2018-07-15T10:55:07.135Z,100093.55
2018-07-15T10:57:40.461Z,100083.77
2018-07-15T11:00:16.473Z,100091.55
2018-07-15T11:02:52.492Z,100082.50
2018-07-15T11:05:25.452Z,100084.14
2018-07-15T11:07:58.336Z,100078.86
2018-07-15T11:10:32.161Z,100076.01
2018-07-15T11:13:06.491Z,100074.09
2018-07-15T11:15:41.481Z,100068.96
2018-07-15T11:18:23.528Z,100070.08
2018-07-15T11:20:57.476Z,100071.37
2018-07-15T11:23:33.764Z,100069.38
2018-07-15T11:26:11.601Z,100071.13
2018-07-15T11:28:48.383Z,100061.33
2018-07-15T11:31:23.438Z,100066.91
2018-07-15T11:34:02.606Z,100061.62
2018-07-15T11:36:37.445Z,100058.68
2018-07-15T11:39:11.399Z,100059.84
2018-07-15T11:41:44.582Z,100059.44
2018-07-15T11:44:20.212Z,100055.14
2018-07-15T11:47:02.440Z,100060.34
2018-07-15T11:49:35.996Z,100061.69
2018-07-15T11:52:12.269Z,100060.16
2018-07-15T11:54:47.293Z,100049.43
2018-07-15T11:57:21.183Z,100045.64
2018-07-15T11:59:57.929Z,100043.19
2018-07-15T12:02:33.431Z,100037.45
2018-07-15T12:05:07.745Z,100031.63
2018-07-15T12:07:42.311Z,100034.14
2018-07-15T12:10:17.267Z,100031.53
2018-07-15T12:12:51.026Z,100022.49
2018-07-15T12:15:25.741Z,100024.56
2018-07-15T12:18:01.085Z,100015.23
2018-07-15T12:20:40.218Z,100011.41
2018-07-15T12:23:14.402Z,100010.20
2018-07-15T12:25:47.942Z,100008.11
2018-07-15T12:28:20.919Z,100009.64
2018-07-15T12:30:54.231Z,100005.20
2018-07-15T12:33:27.662Z,100004.08
2018-07-15T12:36:04.796Z,99996.66
2018-07-15T12:38:41.030Z,99992.35
2018-07-15T12:41:14.577Z,99989.23
2018-07-15T12:43:48.092Z,99987.44
2018-07-15T12:46:23.265Z,99978.04
2018-07-15T12:48:55.924Z,99983.00
2018-07-15T12:51:32.616Z,99980.63
2018-07-15T12:54:06.805Z,99982.60
2018-07-15T12:56:41.751Z,99977.04
2018-07-15T12:59:18.202Z,99968.22
2018-07-15T13:01:52.223Z,99972.47
2018-07-15T13:04:26.683Z,99965.32
2018-07-15T13:07:03.318Z,99961.95
2018-07-15T13:09:36.625Z,99964.61
2018-07-15T13:12:15.950Z,99955.26
2018-07-15T13:14:54.503Z,99959.44
2018-07-15T13:17:29.789Z,99945.64
2018-07-15T13:20:05.623Z,99947.70
2018-07-15T13:22:43.893Z,99941.17
2018-07-15T13:25:20.552Z,99939.87
2018-07-15T13:27:55.587Z,99935.07
2018-07-15T13:30:34.280Z,99922.02
2018-07-15T13:33:09.444Z,99930.54
2018-07-15T13:35:58.017Z,99921.14
2018-07-15T13:38:34.503Z,99929.92
2018-07-15T13:41:10.167Z,99926.30
2018-07-15T13:43:52.133Z,99921.49
2018-07-15T13:46:29.055Z,99919.88
2018-07-15T13:49:02.473Z,99917.13
2018-07-15T13:51:38.107Z,99915.08
2018-07-15T13:54:10.968Z,99914.67
2018-07-15T13:56:43.663Z,99906.98
2018-07-15T13:59:17.625Z,99909.67
2018-07-15T14:01:51.209Z,99902.78
2018-07-15T14:04:31.614Z,99905.59
2018-07-15T14:07:13.950Z,99905.56
2018-07-15T14:09:51.997Z,99904.97
2018-07-15T14:12:27.926Z,99902.34
2018-07-15T14:15:05.336Z,99897.82
2018-07-15T14:17:39.335Z,99898.41
2018-07-15T14:20:24.366Z,99893.02
2018-07-15T14:23:00.457Z,99889.28
2018-07-15T14:25:37.366Z,99889.55
2018-07-15T14:28:23.641Z,99889.22
2018-07-15T14:30:57.993Z,99885.63
2018-07-15T14:33:51.397Z,99884.36
2018-07-15T14:36:28.704Z,99886.50
2018-07-15T14:39:04.374Z,99875.64
2018-07-15T14:41:46.127Z,99868.14
2018-07-15T14:44:20.266Z,99870.56
2018-07-15T14:46:55.909Z,99869.37
2018-07-15T14:49:29.377Z,99874.78
2018-07-15T14:52:04.471Z,99876.78
2018-07-15T14:54:39.425Z,99867.83
2018-07-15T14:57:13.429Z,99865.24
2018-07-15T14:59:47.530Z,99863.39
2018-07-15T15:02:20.064Z,99866.53
2018-07-15T15:04:54.391Z,99866.14
2018-07-15T15:07:28.919Z,99856.00
2018-07-15T15:10:02.592Z,99863.09
2018-07-15T15:12:42.669Z,99863.99
2018-07-15T15:15:17.708Z,99861.45
2018-07-15T15:17:54.024Z,99856.52
2018-07-15T15:20:30.213Z,99859.16
2018-07-15T15:23:04.605Z,99852.61
2018-07-15T15:25:39.966Z,99851.68
2018-07-15T15:28:15.720Z,99859.01
2018-07-15T15:30:56.078Z,99857.19
2018-07-15T15:33:29.425Z,99856.80
2018-07-15T15:36:03.052Z,99854.46
2018-07-15T15:38:38.237Z,99845.41
2018-07-15T15:41:15.733Z,99851.19
2018-07-15T15:43:50.625Z,99852.01
2018-07-15T15:46:25.447Z,99848.06
2018-07-15T15:48:58.173Z,99836.06
2018-07-15T15:51:33.846Z,99835.82
2018-07-15T15:54:06.856Z,99837.02
2018-07-15T15:56:42.539Z,99836.09
2018-07-15T15:59:17.492Z,99829.89
2018-07-15T16:01:51.885Z,99837.06
2018-07-15T16:04:29.620Z,99832.84
2018-07-15T16:07:11.258Z,99826.52
2018-07-15T16:09:48.154Z,99830.61
2018-07-15T16:12:25.138Z,99825.70
2018-07-15T16:15:04.003Z,99822.52
2018-07-15T16:17:50.488Z,99825.30
2018-07-15T16:20:32.969Z,99819.83
2018-07-15T16:23:09.346Z,99820.83
2018-07-15T16:25:44.166Z,99825.20
2018-07-15T16:28:19.955Z,99827.98
2018-07-15T16:30:54.577Z,99829.08
2018-07-15T16:33:43.642Z,99823.91
2018-07-15T16:36:17.734Z,99820.18
2018-07-15T16:38:56.695Z,99821.21
2018-07-15T16:41:29.745Z,99822.71
2018-07-15T16:44:04.882Z,99815.57
2018-07-15T16:46:40.713Z,99820.65
2018-07-15T16:49:16.906Z,99818.59
2018-07-15T16:51:51.313Z,99821.64
2018-07-15T16:54:26.553Z,99824.60
2018-07-15T16:57:04.777Z,99820.48
2018-07-15T16:59:38.715Z,99816.16
2018-07-15T17:02:13.360Z,99816.80
2018-07-15T17:04:51.022Z,99815.73
2018-07-15T17:07:25.278Z,99812.36
2018-07-15T17:09:59.305Z,99806.22
2018-07-15T17:12:33.909Z,99803.09
2018-07-15T17:15:07.934Z,99799.09
2018-07-15T17:17:42.292Z,99794.58
2018-07-15T17:20:17.670Z,99799.47
2018-07-15T17:22:53.670Z,99786.97
2018-07-15T17:25:26.955Z,99789.19
2018-07-15T17:28:01.369Z,99786.08
2018-07-15T17:30:36.849Z,99780.19
2018-07-15T17:33:10.005Z,99787.68
2018-07-15T17:35:44.533Z,99786.09
2018-07-15T17:38:20.696Z,99784.74
2018-07-15T17:41:04.842Z,99779.22
2018-07-15T17:43:38.449Z,99780.91
2018-07-15T17:46:12.563Z,99780.80
2018-07-15T17:48:46.871Z,99780.13
2018-07-15T17:51:21.141Z,99781.72
2018-07-15T17:53:56.660Z,99783.48
2018-07-15T17:56:34.175Z,99780.59
2018-07-15T17:59:10.395Z,99791.44
2018-07-15T18:01:43.184Z,99790.95
2018-07-15T18:04:17.569Z,99793.96
2018-07-15T18:06:51.252Z,99797.23
2018-07-15T18:09:25.300Z,99801.88
2018-07-15T18:11:58.883Z,99798.65
2018-07-15T18:14:37.700Z,99801.90
2018-07-15T18:17:11.564Z,99805.95
2018-07-15T18:19:53.482Z,99806.52
2018-07-15T18:22:32.008Z,99809.55
2018-07-15T18:25:15.333Z,99812.27
2018-07-15T18:27:50.309Z,99819.77
2018-07-15T18:30:30.808Z,99812.71
2018-07-15T18:33:05.117Z,99818.59
2018-07-15T18:35:40.000Z,99820.19
2018-07-15T18:38:21.947Z,99825.25
2018-07-15T18:40:55.042Z,99829.14
2018-07-15T18:43:30.007Z,99823.50
2018-07-15T18:46:05.999Z,99825.56
2018-07-15T18:48:41.779Z,99827.77
2018-07-15T18:51:14.356Z,99826.15
2018-07-15T18:53:48.342Z,99824.37
2018-07-15T18:56:21.913Z,99828.50
2018-07-15T18:58:56.593Z,99826.25
2018-07-15T19:01:34.556Z,99824.62
2018-07-15T19:04:08.252Z,99830.39
2018-07-15T19:06:40.846Z,99828.05
2018-07-15T19:09:17.387Z,99829.70
2018-07-15T19:11:51.200Z,99833.71
2018-07-15T19:14:24.676Z,99833.95
2018-07-15T19:17:12.054Z,99831.86
2018-07-15T19:19:51.718Z,99835.48
2018-07-15T19:22:45.091Z,99844.27
2018-07-15T19:25:20.358Z,99849.98
2018-07-15T19:27:53.512Z,99847.61
2018-07-15T19:30:32.017Z,99854.03
2018-07-15T19:33:08.373Z,99846.44
2018-07-15T19:35:44.478Z,99853.29
2018-07-15T19:38:26.489Z,99853.23
2018-07-15T19:41:03.629Z,99860.42
2018-07-15T19:43:41.334Z,99859.88
2018-07-15T19:46:19.953Z,99865.56
2018-07-15T19:48:55.320Z,99873.33
2018-07-15T19:51:31.493Z,99875.75
2018-07-15T19:54:06.129Z,99877.18
2018-07-15T19:56:40.447Z,99875.89
2018-07-15T19:59:13.176Z,99877.76
2018-07-15T20:01:46.796Z,99878.69
2018-07-15T20:04:22.049Z,99881.61
2018-07-15T20:06:55.765Z,99883.83
2018-07-15T20:09:30.519Z,99884.52
2018-07-15T20:12:05.732Z,99887.23
2018-07-15T20:14:47.558Z,99889.83
2018-07-15T20:17:21.688Z,99893.17
2018-07-15T20:19:56.073Z,99901.77
2018-07-15T20:22:42.604Z,99895.56
2018-07-15T20:25:16.450Z,99893.10
2018-07-15T20:27:51.751Z,99895.61
2018-07-15T20:30:37.541Z,99895.11
2018-07-15T20:33:16.680Z,99894.75
2018-07-15T20:35:52.694Z,99893.97
2018-07-15T20:38:30.249Z,99894.02
2018-07-15T20:41:03.473Z,99892.23
2018-07-15T20:43:41.580Z,99892.44
2018-07-15T20:46:15.750Z,99895.89
2018-07-15T20:48:52.127Z,99894.99
2018-07-15T20:51:25.907Z,99901.90
2018-07-15T20:54:01.807Z,99899.08
2018-07-15T20:56:38.965Z,99900.70
2018-07-15T20:59:20.373Z,99903.98
2018-07-15T21:01:55.340Z,99906.08
2018-07-15T21:04:38.592Z,99908.05
2018-07-15T21:07:15.537Z,99911.68
2018-07-15T21:09:57.726Z,99908.87
2018-07-15T21:12:34.981Z,99908.07
2018-07-15T21:15:14.545Z,99919.02
2018-07-15T21:17:49.405Z,99915.33
2018-07-15T21:20:30.109Z,99915.11
2018-07-15T21:23:18.545Z,99917.94
2018-07-15T21:25:53.961Z,99924.27
2018-07-15T21:28:30.673Z,99921.45
2018-07-15T21:31:05.309Z,99923.16
2018-07-15T21:33:37.871Z,99927.38
2018-07-15T21:36:13.372Z,99926.88
2018-07-15T21:38:48.434Z,99924.67
2018-07-15T21:41:23.183Z,99923.98
2018-07-15T21:43:57.397Z,99918.48
2018-07-15T21:46:30.768Z,99923.19
2018-07-15T21:49:09.244Z,99925.95
2018-07-15T21:51:43.481Z,99921.27
2018-07-15T21:54:19.287Z,99924.67
2018-07-15T21:56:52.945Z,99922.09
2018-07-15T21:59:28.249Z,99922.42
2018-07-15T22:02:02.766Z,99921.97
2018-07-15T22:04:37.978Z,99924.39
2018-07-15T22:07:33.053Z,99927.55
2018-07-15T22:10:37.328Z,99926.55
2018-07-15T22:13:16.134Z,99923.14
2018-07-15T22:15:49.673Z,99927.05
2018-07-15T22:18:26.809Z,99921.64
2018-07-15T22:21:01.627Z,99921.19
2018-07-15T22:23:36.337Z,99926.20
2018-07-15T22:26:11.263Z,99925.10
2018-07-15T22:28:43.992Z,99919.36
2018-07-15T22:31:17.696Z,99919.50
2018-07-15T22:33:52.072Z,99924.33
2018-07-15T22:36:24.671Z,99920.86
2018-07-15T22:38:58.790Z,99923.08
2018-07-15T22:41:31.594Z,99924.13
2018-07-15T22:44:05.230Z,99924.46
2018-07-15T22:46:38.800Z,99923.38
2018-07-15T22:49:12.861Z,99920.95
2018-07-15T22:51:46.450Z,99920.84
2018-07-15T22:54:20.584Z,99920.15
2018-07-15T22:56:53.712Z,99920.27
2018-07-15T22:59:26.664Z,99909.00
2018-07-15T23:02:00.829Z,99906.33
2018-07-15T23:05:35.244Z,99908.90
2018-07-15T23:08:08.265Z,99912.33
2018-07-15T23:10:40.765Z,99911.23
2018-07-15T23:13:15.019Z,99907.41
2018-07-15T23:15:48.011Z,99903.73
2018-07-15T23:18:20.601Z,99909.45
2018-07-15T23:20:54.238Z,99904.06
2018-07-15T23:23:26.784Z,99907.45
2018-07-15T23:26:03.027Z,99909.52
2018-07-15T23:28:36.846Z,99903.98
2018-07-15T23:31:09.461Z,99907.81
2018-07-15T23:33:42.026Z,99899.59
2018-07-15T23:36:16.772Z,99903.59
2018-07-15T23:38:49.321Z,99905.34
2018-07-15T23:41:21.740Z,99908.17
2018-07-15T23:43:54.629Z,99908.73
2018-07-15T23:46:27.758Z,99903.25
2018-07-15T23:49:01.625Z,99906.29
2018-07-15T23:51:36.452Z,99900.16
2018-07-15T23:54:09.478Z,99903.67
2018-07-15T23:56:44.800Z,99905.31
2018-07-15T23:59:19.214Z,99912.26
